Time;durP1;ratioP1;P1;durP2;ratioP2;P2;SDS_P1;SDS_P2;PMS_P1;PMS_P2;Temp;Humidity;BMP_temperature;BMP_pressure;BME280_temperature;BME280_humidity;BME280_pressure;Samples;Min_cycle;Max_cycle;Signal;HPM_P1;HPM_P2
2022/01/12 00:00:15;;;;;;;10.00;6.63;;;12.20;46.50;11.50;103076.00;;;;4943731;28;20520;-81
2022/01/12 00:03:01;;;;;;;8.93;6.05;;;12.20;46.50;11.50;103085.00;;;;4937928;28;20046;-80
2022/01/12 00:05:47;;;;;;;9.90;5.85;;;12.10;46.50;11.50;103079.00;;;;4951423;28;20041;-80
2022/01/12 00:08:34;;;;;;;11.27;5.97;;;12.10;46.60;11.50;103069.00;;;;4937749;28;20034;-81
2022/01/12 00:11:22;;;;;;;10.48;6.57;;;12.10;46.60;11.50;103069.00;;;;4937456;28;20120;-81
2022/01/12 00:14:08;;;;;;;9.13;6.38;;;12.10;46.60;11.50;103069.00;;;;4939184;28;20044;-81
2022/01/12 00:16:59;;;;;;;9.82;5.78;;;12.10;46.60;11.50;103077.00;;;;4952261;28;20092;-80
2022/01/12 00:19:45;;;;;;;10.30;6.63;;;12.10;46.70;11.50;103082.00;;;;4937332;28;20411;-81
2022/01/12 00:22:33;;;;;;;10.70;6.53;;;12.10;46.70;11.50;103082.00;;;;4935724;28;20043;-81
2022/01/12 00:34:15;;;;;;;11.27;6.47;;;12.10;46.70;11.50;103094.00;;;;4958698;28;20588;-81
2022/01/12 00:37:02;;;;;;;11.73;6.03;;;12.10;46.70;11.50;103094.00;;;;4937799;28;20093;-80
2022/01/12 00:39:48;;;;;;;9.77;5.63;;;12.00;46.70;11.50;103089.00;;;;4951105;28;20751;-81
2022/01/12 00:42:34;;;;;;;9.30;5.95;;;12.10;46.80;11.50;103102.00;;;;4946323;28;20054;-81
2022/01/12 00:45:21;;;;;;;10.10;6.03;;;12.10;46.80;11.50;103104.00;;;;4956871;28;20058;-80
2022/01/12 00:48:07;;;;;;;9.18;6.10;;;12.10;46.80;11.60;103106.00;;;;4952709;28;20121;-81
2022/01/12 00:50:54;;;;;;;8.38;6.45;;;12.10;46.80;11.50;103114.00;;;;4936669;28;20030;-81
2022/01/12 00:53:41;;;;;;;9.67;6.00;;;12.10;46.80;11.50;103106.00;;;;4948190;28;20042;-81
2022/01/12 00:56:27;;;;;;;10.90;6.13;;;12.20;46.70;11.60;103117.00;;;;4948936;28;20281;-81
2022/01/12 00:59:14;;;;;;;10.43;6.25;;;12.20;46.70;11.60;103117.00;;;;4936527;28;20057;-81
2022/01/12 01:02:00;;;;;;;9.88;5.95;;;12.20;46.80;11.60;103121.00;;;;4948581;28;20045;-80
2022/01/12 01:04:46;;;;;;;10.63;6.00;;;12.20;46.70;11.60;103106.00;;;;4934364;28;20054;-81
2022/01/12 01:07:33;;;;;;;10.07;5.78;;;12.20;46.70;11.60;103120.00;;;;4962239;28;20053;-81
2022/01/12 01:11:02;;;;;;;9.35;5.70;;;12.20;46.70;11.60;103113.00;;;;4935018;28;20034;-81
2022/01/12 01:13:35;;;;;;;7.65;5.90;;;12.20;46.70;11.50;103114.00;;;;4977359;28;20053;-81
2022/01/12 01:25:36;;;;;;;8.73;5.55;;;12.10;46.60;11.50;103133.00;;;;4965408;28;20039;-81
2022/01/12 01:28:22;;;;;;;8.52;5.72;;;12.10;46.70;11.50;103137.00;;;;4934592;28;20520;-81
2022/01/12 01:31:09;;;;;;;14.05;6.60;;;12.10;46.80;11.50;103155.00;;;;4936492;28;20038;-81
2022/01/12 01:33:55;;;;;;;9.88;6.00;;;12.10;46.90;11.50;103155.00;;;;4929411;28;20162;-80
2022/01/12 01:36:47;;;;;;;10.70;6.28;;;12.10;47.00;11.60;103165.00;;;;4948544;28;20557;-80
2022/01/12 01:39:34;;;;;;;11.43;6.05;;;12.10;47.20;11.60;103160.00;;;;4940685;28;20038;-81
2022/01/12 01:42:30;;;;;;;9.20;5.88;;;12.10;47.10;11.60;103158.00;;;;4947478;28;20104;-80
2022/01/12 01:54:32;;;;;;;8.75;5.70;;;12.30;47.20;11.60;103161.00;;;;4966171;28;20097;-80
2022/01/12 01:57:19;;;;;;;11.35;6.70;;;12.30;47.20;11.70;103170.00;;;;4950574;28;20038;-81
2022/01/12 02:00:12;;;;;;;10.70;6.30;;;12.30;47.30;11.70;103173.00;;;;4935760;28;20042;-80
2022/01/12 02:03:00;;;;;;;8.85;6.13;;;12.30;47.30;11.70;103163.00;;;;4930113;28;20840;-81
2022/01/12 02:05:46;;;;;;;;;;;12.30;47.30;11.70;103164.00;;;;4964376;28;20125;-81
2022/01/12 02:08:33;;;;;;;7.65;5.22;;;12.30;47.30;11.70;103166.00;;;;4957999;28;20008;-81
2022/01/12 02:11:27;;;;;;;6.07;4.95;;;12.40;47.20;11.70;103165.00;;;;4947818;28;20490;-81
2022/01/12 02:14:13;;;;;;;8.65;5.28;;;12.40;47.40;11.70;103165.00;;;;4948424;28;20038;-81
2022/01/12 02:17:05;;;;;;;8.75;5.78;;;12.30;47.30;11.70;103164.00;;;;4935872;28;20042;-81
2022/01/12 02:20:12;;;;;;;10.07;5.90;;;12.40;47.40;11.70;103158.00;;;;4950639;28;20042;-81
2022/01/12 02:41:23;;;;;;;9.50;5.93;;;12.20;47.40;11.50;103127.00;;;;4943790;28;20005;-81
2022/01/12 02:53:43;;;;;;;9.10;5.55;;;12.10;47.80;11.50;103164.00;;;;4882095;29;20501;-80
2022/01/12 02:56:32;;;;;;;9.43;5.80;;;12.10;47.80;11.50;103178.00;;;;4872471;29;20443;-81
2022/01/12 02:59:18;;;;;;;11.50;5.97;;;12.20;48.00;11.60;103168.00;;;;4917403;28;20054;-81
2022/01/12 03:02:20;;;;;;;15.38;5.78;;;12.20;48.00;11.60;103168.00;;;;4922413;28;20100;-81
2022/01/12 03:05:46;;;;;;;10.45;6.25;;;12.20;48.00;11.60;103185.00;;;;4933439;28;20046;-81
2022/01/12 03:08:24;;;;;;;12.77;6.28;;;12.20;48.10;11.60;103177.00;;;;4949299;28;20443;-81
2022/01/12 03:11:14;;;;;;;8.90;5.78;;;12.30;48.00;11.70;103192.00;;;;4929900;28;20039;-81
2022/01/12 03:14:00;;;;;;;9.07;5.85;;;12.30;48.00;11.70;103199.00;;;;4933639;28;20045;-81
2022/01/12 03:16:46;;;;;;;10.90;6.35;;;12.30;48.00;11.70;103200.00;;;;4928502;28;20055;-81
2022/01/12 03:19:32;;;;;;;10.43;6.38;;;12.40;48.00;11.80;103191.00;;;;4926722;28;20071;-80
2022/01/12 03:22:19;;;;;;;9.23;6.22;;;12.40;47.90;11.80;103188.00;;;;4928186;28;20043;-81
2022/01/12 03:25:05;;;;;;;10.40;5.82;;;12.40;47.80;11.80;103196.00;;;;4927923;28;20183;-80
2022/01/12 03:27:56;;;;;;;10.65;6.05;;;12.50;47.90;11.90;103200.00;;;;4929860;28;20121;-81
2022/01/12 03:30:55;;;;;;;9.63;5.93;;;12.50;47.80;11.90;103200.00;;;;4942577;28;20066;-81
2022/01/12 03:39:22;;;;;;;10.02;6.30;;;12.70;47.60;12.00;103214.00;;;;4949710;28;20046;-81
2022/01/12 03:42:08;;;;;;;11.50;6.55;;;12.70;47.40;12.00;103216.00;;;;4934448;28;20043;-81
2022/01/12 03:44:54;;;;;;;10.93;5.93;;;12.80;47.40;12.00;103221.00;;;;4933759;28;20062;-80
2022/01/12 03:47:41;;;;;;;12.73;7.07;;;12.80;47.30;12.00;103208.00;;;;4934409;28;20121;-80
2022/01/12 03:50:27;;;;;;;13.43;7.47;;;12.80;47.20;12.00;103214.00;;;;4927666;28;20034;-80
2022/01/12 03:53:13;;;;;;;10.05;6.40;;;12.80;47.20;12.00;103216.00;;;;4931280;28;20039;-80
2022/01/12 03:55:59;;;;;;;12.52;6.95;;;12.80;47.20;12.00;103219.00;;;;4933564;28;20053;-80
2022/01/12 03:58:46;;;;;;;10.20;6.55;;;12.80;47.20;12.00;103216.00;;;;4948422;28;20057;-81
2022/01/12 04:01:32;;;;;;;10.18;6.88;;;12.80;47.20;12.00;103210.00;;;;4948282;28;20044;-81
2022/01/12 04:04:24;;;;;;;11.63;6.63;;;12.80;47.20;12.00;103213.00;;;;4932714;28;20054;-81
2022/01/12 04:10:35;;;;;;;14.18;7.35;;;12.80;47.10;12.00;103208.00;;;;4874135;29;20136;-81
2022/01/12 04:13:26;;;;;;;13.40;7.28;;;12.80;47.10;11.90;103209.00;;;;4869487;29;20048;-80
2022/01/12 04:16:13;;;;;;;12.75;7.70;;;12.70;47.10;11.90;103205.00;;;;4951856;28;20053;-81
2022/01/12 04:18:59;;;;;;;13.43;7.17;;;12.70;47.10;11.90;103222.00;;;;4950177;28;20076;-81
2022/01/12 04:21:48;;;;;;;13.88;8.73;;;12.70;47.10;11.80;103228.00;;;;4948673;28;20085;-81
2022/01/12 04:24:35;;;;;;;9.77;6.97;;;12.60;47.20;11.80;103232.00;;;;4939840;28;20050;-80
2022/01/12 04:27:21;;;;;;;13.13;8.20;;;12.60;47.30;11.80;103235.00;;;;4937634;28;20603;-80
2022/01/12 04:30:08;;;;;;;14.70;8.73;;;12.60;47.30;11.80;103227.00;;;;4944906;28;20042;-80
2022/01/12 04:32:54;;;;;;;12.13;7.57;;;12.60;47.30;11.80;103227.00;;;;4935814;28;20042;-81
2022/01/12 04:35:52;;;;;;;12.88;7.95;;;12.50;47.30;11.80;103217.00;;;;4936234;28;20407;-81
2022/01/12 04:38:42;;;;;;;14.95;9.50;;;12.50;47.50;11.70;103207.00;;;;4968293;28;20415;-80
2022/01/12 04:41:28;;;;;;;12.00;7.82;;;12.50;47.60;11.70;103206.00;;;;4950456;28;20046;-81
2022/01/12 04:44:14;;;;;;;14.82;7.80;;;12.50;47.70;11.70;103192.00;;;;4938747;28;20038;-80
2022/01/12 04:47:07;;;;;;;12.57;8.35;;;12.50;47.90;11.70;103192.00;;;;4950033;28;20042;-80
2022/01/12 04:49:55;;;;;;;13.13;8.23;;;12.40;47.90;11.60;103186.00;;;;4935448;28;20054;-80
2022/01/12 04:52:42;;;;;;;14.73;8.57;;;12.40;48.10;11.60;103196.00;;;;4937905;28;20419;-81
2022/01/12 04:55:28;;;;;;;15.48;8.93;;;12.30;48.20;11.60;103209.00;;;;4949458;28;20050;-81
2022/01/12 04:58:15;;;;;;;15.45;8.73;;;12.30;48.20;11.60;103213.00;;;;4929540;28;20125;-80
2022/01/12 05:01:22;;;;;;;12.77;8.05;;;12.30;48.30;11.60;103213.00;;;;4929407;28;20501;-81
2022/01/12 05:07:30;;;;;;;14.07;8.55;;;12.20;48.50;11.60;103217.00;;;;4956165;28;20483;-80
2022/01/12 05:13:15;;;;;;;13.10;8.18;;;12.20;48.70;11.60;103216.00;;;;4952983;28;20536;-80
2022/01/12 05:16:02;;;;;;;10.73;8.25;;;12.20;48.60;11.60;103218.00;;;;4945389;28;20061;-81
2022/01/12 05:18:50;;;;;;;11.77;7.97;;;12.20;48.70;11.50;103226.00;;;;4936546;28;20038;-81
2022/01/12 05:21:36;;;;;;;11.73;7.97;;;12.20;48.80;11.50;103220.00;;;;4937481;28;20133;-81
2022/01/12 05:24:23;;;;;;;13.30;8.40;;;12.20;48.80;11.50;103225.00;;;;4929769;28;20043;-80
2022/01/12 05:27:10;;;;;;;13.43;8.40;;;12.20;48.90;11.60;103221.00;;;;4937067;28;20034;-81
2022/01/12 05:29:56;;;;;;;13.07;8.73;;;12.20;48.90;11.60;103226.00;;;;4935997;28;20042;-80
2022/01/12 05:32:43;;;;;;;13.57;8.68;;;12.20;49.00;11.60;103232.00;;;;4951343;28;20046;-80
2022/01/12 05:35:32;;;;;;;13.30;8.90;;;12.20;49.10;11.60;103229.00;;;;4918637;28;20490;-80
2022/01/12 05:38:19;;;;;;;13.20;8.65;;;12.20;49.10;11.70;103222.00;;;;4934079;28;20039;-80
2022/01/12 05:41:06;;;;;;;14.55;8.55;;;12.30;49.20;11.70;103229.00;;;;4917958;28;20495;-81
2022/01/12 05:43:52;;;;;;;13.25;9.00;;;12.30;49.10;11.70;103237.00;;;;4917034;28;20038;-81
2022/01/12 05:46:41;;;;;;;19.15;9.73;;;12.30;49.10;11.70;103231.00;;;;4914796;28;20041;-80
2022/01/12 05:49:34;;;;;;;14.82;9.50;;;12.40;49.10;11.70;103237.00;;;;4913636;28;20035;-81
2022/01/12 05:52:20;;;;;;;15.15;8.63;;;12.40;49.00;11.70;103232.00;;;;4944364;28;20039;-81
2022/01/12 05:55:07;;;;;;;14.70;9.15;;;12.40;49.00;11.70;103235.00;;;;4917891;28;20042;-81
2022/01/12 05:57:54;;;;;;;14.60;9.38;;;12.40;49.00;11.70;103228.00;;;;4923500;28;20050;-80
2022/01/12 06:00:40;;;;;;;13.50;8.65;;;12.40;49.00;11.80;103240.00;;;;4921510;28;20040;-80
2022/01/12 06:03:26;;;;;;;15.27;8.75;;;12.40;49.00;11.80;103232.00;;;;4933094;28;20039;-84
2022/01/12 06:06:15;;;;;;;12.98;8.40;;;12.40;49.00;11.80;103238.00;;;;4941458;28;20050;-84
2022/01/12 06:09:02;;;;;;;13.80;9.93;;;12.50;49.00;11.80;103243.00;;;;4928068;28;20098;-84
2022/01/12 06:11:48;;;;;;;11.63;7.97;;;12.50;49.00;11.80;103246.00;;;;4922281;28;20043;-84
2022/01/12 06:14:35;;;;;;;11.35;8.05;;;12.50;49.00;11.80;103251.00;;;;4922110;28;20045;-84
2022/01/12 06:17:22;;;;;;;14.75;8.88;;;12.50;49.00;11.80;103255.00;;;;4931103;28;20039;-84
2022/01/12 06:20:11;;;;;;;15.75;8.77;;;12.50;49.00;11.80;103257.00;;;;4907647;28;20671;-84
2022/01/12 06:22:57;;;;;;;13.50;9.57;;;12.50;49.10;11.80;103251.00;;;;4940645;28;20138;-84
2022/01/12 06:25:46;;;;;;;15.50;8.70;;;12.50;49.00;11.80;103257.00;;;;4923025;28;20049;-84
2022/01/12 06:31:23;;;;;;;25.92;15.23;;;12.60;49.00;11.80;103259.00;;;;4928101;28;20121;-83
2022/01/12 06:34:09;;;;;;;21.35;12.07;;;12.60;49.10;11.80;103271.00;;;;4937791;28;20071;-84
2022/01/12 06:36:56;;;;;;;16.83;11.02;;;12.60;49.10;11.80;103276.00;;;;4948151;28;20554;-84
2022/01/12 06:39:42;;;;;;;16.08;10.10;;;12.60;49.10;11.80;103293.00;;;;4947613;28;20502;-84
2022/01/12 06:42:28;;;;;;;15.13;10.38;;;12.60;49.10;11.90;103286.00;;;;4958032;28;20054;-84
2022/01/12 06:45:14;;;;;;;17.05;10.27;;;12.60;49.10;11.80;103299.00;;;;4933702;28;20034;-84
2022/01/12 06:48:01;;;;;;;18.15;9.80;;;12.60;49.20;11.80;103295.00;;;;4959683;28;20035;-84
2022/01/12 06:50:47;;;;;;;15.05;9.23;;;12.60;49.20;11.90;103313.00;;;;4940338;28;20039;-84
2022/01/12 06:53:33;;;;;;;14.80;9.73;;;12.60;49.20;11.90;103329.00;;;;4975979;28;20046;-84
2022/01/12 06:56:20;;;;;;;16.27;9.80;;;12.60;49.20;11.90;103333.00;;;;4948413;28;20045;-84
2022/01/12 06:59:06;;;;;;;18.98;9.98;;;12.60;49.90;11.90;103331.00;;;;4953045;28;20054;-84
2022/01/12 07:01:52;;;;;;;16.83;10.63;;;12.70;49.20;12.00;103340.00;;;;4961198;28;20128;-84
2022/01/12 07:04:39;;;;;;;15.88;9.98;;;12.70;49.20;12.00;103341.00;;;;4958221;28;20042;-84
2022/01/12 07:07:25;;;;;;;17.65;9.32;;;12.70;49.10;12.00;103334.00;;;;4934876;28;20042;-84
2022/01/12 07:10:11;;;;;;;15.20;10.45;;;12.70;49.10;12.00;103333.00;;;;4935372;28;20042;-84
2022/01/12 07:12:57;;;;;;;17.75;10.88;;;12.80;49.10;12.00;103333.00;;;;4947415;28;20090;-84
2022/01/12 07:15:44;;;;;;;19.20;10.40;;;12.80;49.10;12.00;103329.00;;;;4947961;28;20042;-84
2022/01/12 07:18:30;;;;;;;19.05;11.05;;;12.80;49.10;11.90;103342.00;;;;4942223;28;20057;-84
2022/01/12 07:21:16;;;;;;;17.48;10.45;;;12.80;49.10;11.90;103336.00;;;;4959585;28;20050;-84
2022/01/12 07:24:03;;;;;;;20.25;10.57;;;12.80;49.20;11.90;103324.00;;;;4947408;28;20050;-84
2022/01/12 07:26:49;;;;;;;15.90;10.05;;;12.70;49.20;11.90;103338.00;;;;4934498;28;20453;-84
2022/01/12 07:29:35;;;;;;;20.48;11.60;;;12.70;49.30;11.90;103340.00;;;;4925649;28;20034;-84
2022/01/12 07:32:21;;;;;;;21.83;11.30;;;12.60;49.30;11.80;103351.00;;;;4945507;28;20038;-84
2022/01/12 07:35:08;;;;;;;21.00;11.38;;;12.60;49.40;11.80;103344.00;;;;4958057;28;20384;-84
2022/01/12 07:37:54;;;;;;;20.45;10.73;;;12.60;49.50;11.80;103347.00;;;;4948307;28;20046;-84
2022/01/12 07:40:41;;;;;;;21.88;11.13;;;12.50;49.60;11.80;103334.00;;;;4950418;28;20582;-84
2022/01/12 07:43:27;;;;;;;25.17;11.98;;;12.50;49.80;11.80;103344.00;;;;4946770;28;20046;-83
2022/01/12 07:46:13;;;;;;;23.92;12.25;;;12.50;49.80;11.70;103354.00;;;;4948182;28;20066;-84
2022/01/12 07:48:59;;;;;;;22.92;12.02;;;12.50;49.90;11.70;103362.00;;;;4934458;28;20053;-84
2022/01/12 07:51:46;;;;;;;25.40;13.40;;;12.50;50.00;11.70;103369.00;;;;4947884;28;20132;-84
2022/01/12 07:54:32;;;;;;;26.95;12.43;;;12.50;50.10;11.70;103378.00;;;;4949598;28;20054;-84
2022/01/12 07:57:18;;;;;;;28.15;13.23;;;12.40;50.10;11.70;103371.00;;;;4958993;28;20042;-84
2022/01/12 08:00:06;;;;;;;26.15;12.30;;;12.40;50.20;11.70;103367.00;;;;4950915;28;20402;-84
2022/01/12 08:02:54;;;;;;;20.65;12.07;;;12.40;50.20;11.80;103370.00;;;;4951295;28;20050;-84
2022/01/12 08:05:40;;;;;;;25.95;13.65;;;12.50;50.20;11.80;103383.00;;;;4959652;28;20038;-84
2022/01/12 08:08:26;;;;;;;25.92;12.27;;;12.50;50.20;11.80;103382.00;;;;4952772;28;20034;-84
2022/01/12 08:11:13;;;;;;;21.58;12.15;;;12.50;50.20;11.80;103393.00;;;;4966192;28;20062;-84
2022/01/12 08:13:59;;;;;;;23.15;11.73;;;12.50;50.20;11.80;103399.00;;;;4948202;28;20050;-84
2022/01/12 08:16:45;;;;;;;23.35;12.40;;;12.50;50.30;11.80;103397.00;;;;4961637;28;20116;-84
2022/01/12 08:19:35;;;;;;;30.95;12.23;;;12.50;50.30;11.80;103417.00;;;;4945085;28;20428;-86
2022/01/12 08:22:21;;;;;;;24.17;12.30;;;12.50;50.30;11.70;103417.00;;;;4965204;28;20050;-84
2022/01/12 08:25:09;;;;;;;26.65;13.15;;;12.50;50.30;11.70;103427.00;;;;4959034;28;20038;-84
2022/01/12 08:27:56;;;;;;;;;;;12.40;50.30;11.70;103440.00;;;;4935028;28;20049;-85
2022/01/12 08:30:42;;;;;;;23.90;13.27;;;12.50;50.20;11.70;103426.00;;;;4972780;28;19913;-84
2022/01/12 08:33:29;;;;;;;23.55;12.73;;;12.50;50.30;11.70;103428.00;;;;4944573;28;20063;-84
2022/01/12 08:36:15;;;;;;;24.95;13.05;;;12.40;50.40;11.70;103432.00;;;;4951864;28;20132;-84
2022/01/12 08:39:03;;;;;;;25.33;13.68;;;12.40;50.50;11.70;103435.00;;;;4937645;28;20096;-84
2022/01/12 08:41:49;;;;;;;25.47;12.90;;;12.40;50.60;11.70;103435.00;;;;4945591;28;20034;-84
2022/01/12 08:44:38;;;;;;;25.02;14.00;;;12.40;50.70;11.70;103429.00;;;;4973742;28;20285;-84
2022/01/12 08:47:24;;;;;;;25.88;13.05;;;12.40;50.70;11.70;103426.00;;;;4937870;28;20050;-84
2022/01/12 08:50:11;;;;;;;25.48;12.48;;;12.40;50.70;11.70;103434.00;;;;4949497;28;20113;-84
2022/01/12 08:52:57;;;;;;;25.80;12.57;;;12.40;50.80;11.70;103436.00;;;;4947231;28;20414;-84
2022/01/12 08:55:43;;;;;;;24.88;12.13;;;12.40;50.80;11.70;103439.00;;;;4929412;28;20074;-84
2022/01/12 08:58:29;;;;;;;26.58;12.55;;;12.40;50.90;11.70;103435.00;;;;4932124;28;20384;-84
2022/01/12 09:01:16;;;;;;;25.13;13.18;;;12.40;50.90;11.70;103434.00;;;;4934942;28;20046;-84
2022/01/12 09:04:03;;;;;;;23.77;13.40;;;12.40;50.90;11.70;103440.00;;;;4951280;28;20050;-84
2022/01/12 09:06:49;;;;;;;23.92;12.95;;;12.40;50.90;11.70;103440.00;;;;4948524;28;20034;-84
2022/01/12 09:09:35;;;;;;;25.40;13.02;;;12.40;50.90;11.70;103432.00;;;;4934138;28;20069;-84
2022/01/12 09:12:21;;;;;;;24.90;12.25;;;12.40;50.90;11.70;103439.00;;;;4936656;28;20046;-84
2022/01/12 09:15:09;;;;;;;26.08;12.90;;;12.40;51.00;11.70;103440.00;;;;4951352;28;20045;-84
2022/01/12 09:17:56;;;;;;;24.52;14.23;;;12.40;51.00;11.70;103443.00;;;;4971467;28;20038;-84
2022/01/12 09:20:43;;;;;;;25.48;14.10;;;12.40;51.10;11.70;103437.00;;;;4937225;28;20046;-84
2022/01/12 09:23:29;;;;;;;26.10;14.80;;;12.40;51.10;11.70;103435.00;;;;4946073;28;20781;-84
2022/01/12 09:26:15;;;;;;;28.90;16.38;;;12.40;51.20;11.70;103440.00;;;;4958627;28;20039;-84
2022/01/12 09:29:02;;;;;;;27.85;15.18;;;12.30;51.10;11.70;103438.00;;;;4949087;28;20042;-84
2022/01/12 09:31:48;;;;;;;30.92;17.67;;;12.40;51.20;11.70;103436.00;;;;4967134;28;20128;-84
2022/01/12 09:34:35;;;;;;;28.77;16.25;;;12.40;51.30;11.70;103435.00;;;;4962342;28;20129;-84
2022/01/12 09:37:21;;;;;;;22.63;14.30;;;12.40;51.30;11.70;103430.00;;;;4934992;28;20050;-84
2022/01/12 09:40:09;;;;;;;28.50;15.05;;;12.40;51.30;11.70;103432.00;;;;4947658;28;20543;-84
2022/01/12 09:42:57;;;;;;;26.92;14.48;;;12.40;51.40;11.70;103447.00;;;;4938388;28;20046;-84
2022/01/12 09:45:49;;;;;;;25.15;13.40;;;12.40;51.20;11.80;103450.00;;;;4937441;28;20084;-84
2022/01/12 09:48:36;;;;;;;24.13;13.48;;;12.40;51.20;11.80;103475.00;;;;4947882;28;20407;-84
2022/01/12 09:51:23;;;;;;;26.80;13.32;;;12.50;51.30;11.80;103483.00;;;;4961233;28;20035;-84
2022/01/12 09:54:11;;;;;;;24.35;13.10;;;12.50;51.20;11.80;103482.00;;;;4947690;28;20035;-84
2022/01/12 09:56:58;;;;;;;;;;;12.50;51.10;11.80;103479.00;;;;4963889;28;20042;-84
2022/01/12 09:59:44;;;;;;;21.15;12.23;;;12.60;51.10;11.90;103508.00;;;;4959768;28;19972;-84
2022/01/12 10:02:30;;;;;;;21.98;12.95;;;12.60;50.90;12.00;103505.00;;;;4947996;28;20145;-84
2022/01/12 10:05:17;;;;;;;21.88;11.48;;;12.70;51.00;12.00;103506.00;;;;4931410;28;20069;-86
2022/01/12 10:08:13;;;;;;;23.83;13.15;;;12.70;51.00;12.00;103500.00;;;;4942070;28;20042;-84
2022/01/12 10:11:06;;;;;;;22.15;11.90;;;12.80;51.00;12.00;103495.00;;;;4937299;28;20052;-84
2022/01/12 10:14:00;;;;;;;21.33;11.52;;;12.80;50.90;12.00;103504.00;;;;4962740;28;20114;-84
2022/01/12 10:16:57;;;;;;;23.75;13.27;;;12.80;50.90;12.00;103501.00;;;;4972041;28;20403;-84
2022/01/12 10:19:43;;;;;;;22.77;13.23;;;12.80;50.90;12.00;103494.00;;;;4959180;28;20121;-84
2022/01/12 10:22:30;;;;;;;21.75;12.55;;;12.80;50.80;12.00;103489.00;;;;4960138;28;20064;-84
2022/01/12 10:25:18;;;;;;;20.65;11.27;;;12.80;50.80;12.10;103489.00;;;;4942833;28;20047;-85
2022/01/12 10:28:20;;;;;;;20.77;11.82;;;12.80;50.90;12.10;103489.00;;;;4936736;28;20042;-85
2022/01/12 10:31:06;;;;;;;18.75;11.82;;;12.80;50.90;12.10;103496.00;;;;4930415;28;20499;-85
2022/01/12 10:34:02;;;;;;;18.50;11.45;;;12.90;50.90;12.10;103504.00;;;;4933773;28;20066;-85
2022/01/12 10:36:49;;;;;;;35.55;11.77;;;12.90;51.00;12.10;103502.00;;;;4933615;28;20042;-84
2022/01/12 10:39:39;;;;;;;18.70;10.75;;;12.90;50.90;12.00;103498.00;;;;4936387;28;20105;-85
2022/01/12 10:42:27;;;;;;;16.17;10.57;;;12.90;51.00;12.00;103496.00;;;;4938819;28;20495;-85
2022/01/12 10:45:14;;;;;;;18.85;10.40;;;12.80;50.90;12.00;103489.00;;;;4946398;28;20081;-85
2022/01/12 10:48:02;;;;;;;20.08;11.23;;;12.90;51.00;12.00;103495.00;;;;4934903;28;20471;-85
2022/01/12 10:50:58;;;;;;;18.60;10.48;;;12.80;51.00;12.00;103494.00;;;;4969327;28;20071;-85
2022/01/12 10:53:44;;;;;;;18.63;9.88;;;12.80;51.30;12.00;103498.00;;;;4938302;28;20054;-85
2022/01/12 10:56:34;;;;;;;17.75;11.02;;;12.80;51.10;12.00;103510.00;;;;4947463;28;20050;-85
2022/01/12 10:59:21;;;;;;;18.63;10.77;;;12.80;51.30;12.00;103508.00;;;;4960034;28;20042;-85
2022/01/12 11:02:10;;;;;;;17.65;10.10;;;12.80;51.30;12.00;103512.00;;;;4935107;28;20066;-85
2022/01/12 11:04:57;;;;;;;16.38;10.52;;;12.70;51.30;12.00;103507.00;;;;4933999;28;20132;-85
2022/01/12 11:07:43;;;;;;;16.42;9.93;;;12.80;51.40;12.00;103512.00;;;;4941930;28;20093;-85
2022/01/12 11:10:29;;;;;;;17.67;9.80;;;12.70;51.30;12.00;103503.00;;;;4933594;28;20042;-85
2022/01/12 11:13:16;;;;;;;16.48;10.55;;;12.70;51.50;12.00;103506.00;;;;4948211;28;20097;-85
2022/01/12 11:16:04;;;;;;;16.98;9.93;;;12.70;51.50;12.00;103517.00;;;;4931580;28;20117;-85
2022/01/12 11:18:52;;;;;;;20.40;10.60;;;12.70;51.60;11.90;103504.00;;;;4934657;28;20045;-85
2022/01/12 11:21:45;;;;;;;20.20;10.75;;;12.70;51.60;11.90;103494.00;;;;4932910;28;20038;-85
2022/01/12 11:24:32;;;;;;;20.88;11.07;;;12.70;52.50;11.90;103496.00;;;;4961180;28;20117;-85
2022/01/12 11:27:21;;;;;;;18.33;10.52;;;12.70;51.80;11.90;103496.00;;;;4949168;28;20637;-85
2022/01/12 11:30:20;;;;;;;;;;;12.60;51.90;11.80;103493.00;;;;4940547;28;20041;-85
2022/01/12 11:33:09;;;;;;;14.65;9.63;;;12.60;51.70;11.80;103481.00;;;;4965765;28;20393;-85
2022/01/12 11:35:55;;;;;;;16.50;9.70;;;12.60;51.80;11.80;103476.00;;;;4940013;28;20410;-85
2022/01/12 11:38:47;;;;;;;17.50;9.90;;;12.60;52.00;11.80;103480.00;;;;4947632;28;20050;-85
2022/01/12 11:41:35;;;;;;;14.77;9.45;;;12.60;52.10;11.90;103475.00;;;;4943698;28;20042;-85
2022/01/12 11:44:26;;;;;;;16.63;10.23;;;12.60;52.20;11.90;103483.00;;;;4950893;28;20471;-85
2022/01/12 11:47:15;;;;;;;16.05;10.07;;;12.60;52.30;11.90;103478.00;;;;4956802;28;20173;-85
2022/01/12 11:50:10;;;;;;;13.77;8.82;;;12.60;52.40;11.90;103460.00;;;;4972332;28;20062;-85
2022/01/12 11:52:56;;;;;;;16.05;10.18;;;12.60;52.40;11.90;103459.00;;;;4964422;28;20918;-85
2022/01/12 11:55:43;;;;;;;15.98;9.18;;;12.60;52.50;11.90;103471.00;;;;4937279;28;20116;-85
2022/01/12 11:58:29;;;;;;;16.00;8.70;;;12.70;52.50;11.90;103483.00;;;;4953964;28;20049;-85
2022/01/12 12:01:15;;;;;;;15.80;8.88;;;12.60;52.40;11.90;103482.00;;;;4932949;28;20399;-85
2022/01/12 12:04:02;;;;;;;13.73;8.77;;;12.60;52.40;11.90;103485.00;;;;4950729;28;20046;-85
2022/01/12 12:06:50;;;;;;;13.63;8.40;;;12.60;52.40;11.90;103483.00;;;;4940887;28;20041;-85
2022/01/12 12:09:50;;;;;;;15.57;9.03;;;12.60;52.40;11.90;103487.00;;;;4954525;28;20522;-85
2022/01/12 12:12:37;;;;;;;14.40;8.50;;;12.60;52.40;11.90;103496.00;;;;4956409;28;20181;-85
2022/01/12 12:15:24;;;;;;;15.25;9.27;;;12.60;52.40;11.90;103488.00;;;;4939991;28;20092;-85
2022/01/12 12:18:10;;;;;;;14.80;8.85;;;12.60;52.60;11.90;103494.00;;;;4942101;28;20069;-85
2022/01/12 12:20:56;;;;;;;14.90;8.45;;;12.60;52.60;11.90;103479.00;;;;4941242;28;20050;-85
2022/01/12 12:23:42;;;;;;;13.15;8.50;;;12.60;52.60;12.00;103465.00;;;;4946555;28;20479;-85
2022/01/12 12:26:29;;;;;;;16.67;8.63;;;12.60;52.60;12.00;103465.00;;;;4953461;28;20076;-85
2022/01/12 12:29:17;;;;;;;15.10;7.75;;;12.60;52.70;11.90;103468.00;;;;4949948;28;20045;-85
2022/01/12 12:32:05;;;;;;;13.35;8.02;;;12.60;52.60;11.90;103453.00;;;;4932112;28;20039;-85
2022/01/12 12:35:00;;;;;;;18.25;9.00;;;12.70;52.70;12.00;103441.00;;;;4928747;28;20062;-85
2022/01/12 12:37:55;;;;;;;16.70;8.88;;;12.60;52.70;12.00;103459.00;;;;4952307;28;20090;-85
2022/01/12 12:40:55;;;;;;;14.82;8.00;;;12.70;52.70;12.00;103466.00;;;;4947667;28;20053;-85
2022/01/12 12:43:41;;;;;;;13.95;6.95;;;12.70;52.60;12.00;103472.00;;;;4937266;28;20043;-85
2022/01/12 12:46:27;;;;;;;13.57;7.18;;;12.70;52.50;12.00;103485.00;;;;4935538;28;20042;-85
2022/01/12 12:49:13;;;;;;;12.23;7.18;;;12.70;52.50;12.00;103472.00;;;;4936084;28;20447;-85
2022/01/12 12:52:01;;;;;;;12.60;7.22;;;12.70;52.50;12.00;103484.00;;;;4964259;28;20038;-85
2022/01/12 12:54:47;;;;;;;12.77;5.95;;;12.70;52.50;12.10;103492.00;;;;4943795;28;20535;-85
2022/01/12 12:57:34;;;;;;;15.15;7.45;;;12.80;52.50;12.10;103484.00;;;;4950243;28;20126;-85
2022/01/12 13:00:23;;;;;;;13.88;7.80;;;12.80;52.40;12.10;103485.00;;;;4936735;28;20045;-85
2022/01/12 13:03:09;;;;;;;12.75;6.00;;;12.80;52.30;12.10;103490.00;;;;4947130;28;20042;-86
2022/01/12 13:05:55;;;;;;;13.98;6.07;;;12.80;52.20;12.10;103492.00;;;;4938957;28;20046;-85
2022/01/12 13:08:53;;;;;;;11.70;5.90;;;12.80;52.10;12.10;103485.00;;;;4950375;28;20088;-85
2022/01/12 13:11:43;;;;;;;11.35;5.70;;;12.80;52.10;12.10;103489.00;;;;4937255;28;20042;-85
2022/01/12 13:14:30;;;;;;;11.73;5.30;;;12.80;52.00;12.10;103485.00;;;;4937170;28;20070;-85
2022/01/12 13:17:25;;;;;;;12.88;5.97;;;12.80;52.00;12.10;103484.00;;;;4936272;28;20057;-85
2022/01/12 13:23:10;;;;;;;10.98;5.68;;;12.90;52.10;12.10;103491.00;;;;4950875;28;20046;-85
2022/01/12 13:25:58;;;;;;;11.27;5.60;;;12.80;51.90;12.10;103494.00;;;;4949136;28;20395;-85